createdAt,value
2022-10-07T00:06:20.422Z,9
2022-10-07T00:35:18.091Z,9
2022-10-07T01:04:14.570Z,9
2022-10-07T01:33:06.349Z,9
2022-10-07T02:01:59.836Z,7
2022-10-07T02:30:56.156Z,8
2022-10-07T02:59:44.408Z,9
2022-10-07T03:28:29.175Z,8
2022-10-07T03:57:17.430Z,10
2022-10-07T04:26:07.912Z,8
2022-10-07T04:55:04.121Z,9
2022-10-07T05:23:59.410Z,9
2022-10-07T05:52:49.191Z,10
2022-10-07T06:21:41.847Z,17
2022-10-07T06:50:18.981Z,15
2022-10-07T07:19:01.106Z,10
2022-10-07T07:47:31.630Z,10
2022-10-07T08:16:32.304Z,11
2022-10-07T08:45:24.429Z,9
2022-10-07T09:13:56.651Z,11
2022-10-07T09:42:31.021Z,10
2022-10-07T10:11:35.635Z,10
2022-10-07T10:40:30.677Z,10
2022-10-07T11:09:15.225Z,10
2022-10-07T11:37:36.849Z,10
2022-10-07T12:06:34.711Z,10
2022-10-07T12:35:04.834Z,9
2022-10-07T13:03:33.443Z,10
2022-10-07T13:32:25.936Z,10
2022-10-07T14:01:03.869Z,10
2022-10-07T14:29:43.382Z,10
2022-10-07T14:58:22.906Z,9
2022-10-07T15:26:52.854Z,11
2022-10-07T15:55:24.308Z,14
2022-10-07T16:23:42.255Z,11
2022-10-07T16:52:00.900Z,15
2022-10-07T17:20:37.695Z,21
2022-10-07T17:49:08.547Z,19
2022-10-07T18:18:00.072Z,23
2022-10-07T18:46:41.048Z,19
2022-10-07T19:15:11.737Z,25
2022-10-07T19:43:45.677Z,20
2022-10-07T20:12:25.409Z,17
2022-10-07T20:41:08.496Z,19
2022-10-07T21:09:38.432Z,19
2022-10-07T21:38:31.567Z,20
2022-10-07T22:36:14.734Z,16
2022-10-07T23:04:58.494Z,18
